Time;durP1;ratioP1;P1;durP2;ratioP2;P2;SDS_P1;SDS_P2;PMS_P1;PMS_P2;Temp;Humidity;BMP_temperature;BMP_pressure;BME280_temperature;BME280_humidity;BME280_pressure;Samples;Min_cycle;Max_cycle;Signal;HPM_P1;HPM_P2
2022/04/24 00:04:11;;;;;;;2.83;1.83;;;;;;;;;;20874743;28;20214;-83
2022/04/24 00:14:14;;;;;;;3.40;2.20;;;;;;;;;;20870313;28;20218;-83
2022/04/24 00:24:17;;;;;;;3.43;2.23;;;;;;;;;;20889489;28;20222;-83
2022/04/24 00:34:18;;;;;;;2.67;2.00;;;;;;;;;;20889238;28;20214;-83
2022/04/24 00:44:20;;;;;;;2.43;1.90;;;13.70;99.90;;;;;;20887701;28;20218;-83
2022/04/24 00:54:52;;;;;;;3.63;2.30;;;;;;;;;;20882774;28;20210;-82
2022/04/24 01:04:54;;;;;;;2.37;1.67;;;;;;;;;;20870482;28;20272;-84
2022/04/24 01:14:56;;;;;;;2.83;1.73;;;;;;;;;;20886264;28;20260;-83
2022/04/24 01:24:58;;;;;;;3.53;1.90;;;;;;;;;;20867775;28;20319;-83
2022/04/24 01:34:59;;;;;;;3.03;2.37;;;;;;;;;;20925441;28;20267;-83
2022/04/24 01:45:01;;;;;;;3.43;2.00;;;;;;;;;;20966366;28;20283;-83
2022/04/24 01:55:04;;;;;;;2.60;1.83;;;;;;;;;;20899799;28;20210;-82
2022/04/24 02:05:06;;;;;;;2.83;1.90;;;13.40;99.90;;;;;;20898455;28;20226;-82
2022/04/24 02:15:08;;;;;;;4.20;2.20;;;;;;;;;;20893253;28;20695;-82
2022/04/24 02:25:11;;;;;;;2.57;1.67;;;;;;;;;;20914461;28;20264;-83
2022/04/24 02:35:13;;;;;;;2.60;1.80;;;;;;;;;;20896607;28;20267;-82
2022/04/24 02:45:15;;;;;;;2.70;1.87;;;;;;;;;;20943072;28;20288;-82
2022/04/24 02:55:17;;;;;;;2.40;1.50;;;13.40;99.90;;;;;;20861402;28;20213;-82
2022/04/24 03:05:23;;;;;;;2.50;1.80;;;13.30;99.90;;;;;;20893275;28;20602;-82
2022/04/24 03:15:25;;;;;;;2.50;1.60;;;;;;;;;;20876838;28;20260;-83
2022/04/24 03:25:28;;;;;;;3.03;1.40;;;;;;;;;;20876962;28;20230;-83
2022/04/24 03:35:30;;;;;;;2.10;1.10;;;;;;;;;;20892138;28;20214;-82
2022/04/24 03:45:31;;;;;;;2.10;1.40;;;13.20;99.90;;;;;;20866079;28;20817;-82
2022/04/24 03:55:33;;;;;;;1.97;1.20;;;;;;;;;;20908573;28;20272;-83
2022/04/24 04:05:38;;;;;;;2.13;1.17;;;;;;;;;;20875336;28;20229;-83
2022/04/24 04:15:39;;;;;;;1.90;1.20;;;;;;;;;;20923812;28;20765;-82
2022/04/24 04:25:42;;;;;;;1.70;1.20;;;;;;;;;;20905465;28;20695;-83
2022/04/24 04:35:43;;;;;;;1.47;0.90;;;;;;;;;;20905964;28;20230;-83
2022/04/24 04:45:47;;;;;;;1.90;1.00;;;;;;;;;;20888704;28;20699;-82
2022/04/24 04:55:49;;;;;;;1.53;1.10;;;;;;;;;;20986946;28;20369;-82
2022/04/24 05:05:51;;;;;;;2.50;1.33;;;;;;;;;;20969525;28;20221;-82
2022/04/24 05:15:52;;;;;;;2.73;1.40;;;;;;;;;;20969273;28;20354;-82
2022/04/24 05:25:55;;;;;;;1.70;1.10;;;;;;;;;;20968666;28;20217;-84
2022/04/24 05:35:57;;;;;;;2.07;1.10;;;;;;;;;;20935779;28;20218;-83
2022/04/24 05:45:59;;;;;;;1.87;1.20;;;;;;;;;;20868818;28;20284;-83
2022/04/24 05:56:01;;;;;;;2.23;1.10;;;;;;;;;;20867176;28;20590;-83
2022/04/24 06:06:03;;;;;;;2.00;1.10;;;;;;;;;;20866645;28;20233;-83
2022/04/24 06:16:04;;;;;;;1.77;1.13;;;;;;;;;;20935329;28;20240;-82
2022/04/24 06:26:06;;;;;;;1.83;1.10;;;;;;;;;;20890827;28;20580;-80
2022/04/24 06:36:08;;;;;;;2.10;1.13;;;;;;;;;;20875843;28;20214;-80
2022/04/24 06:46:10;;;;;;;1.37;1.00;;;;;;;;;;20894372;28;20280;-81
2022/04/24 06:56:11;;;;;;;1.80;1.23;;;;;;;;;;20939034;28;20252;-81
2022/04/24 07:06:13;;;;;;;2.00;1.37;;;;;;;;;;20988849;28;20233;-80
2022/04/24 07:16:16;;;;;;;1.43;0.83;;;;;;;;;;20959568;28;20288;-80
2022/04/24 07:26:18;;;;;;;1.37;0.97;;;;;;;;;;20852191;28;20229;-80
2022/04/24 07:36:19;;;;;;;1.97;1.10;;;;;;;;;;20883995;28;20230;-82
2022/04/24 07:46:23;;;;;;;2.00;1.43;;;;;;;;;;20899584;28;20226;-80
2022/04/24 07:56:25;;;;;;;2.53;1.20;;;;;;;;;;20851537;28;20627;-80
2022/04/24 08:06:26;;;;;;;3.30;1.60;;;;;;;;;;20867576;28;20230;-81
2022/04/24 08:16:29;;;;;;;2.17;1.50;;;;;;;;;;20873332;28;20277;-81
2022/04/24 08:26:31;;;;;;;2.50;1.53;;;;;;;;;;20851572;28;20775;-81
2022/04/24 08:36:33;;;;;;;2.60;1.30;;;;;;;;;;20884740;28;20214;-80
2022/04/24 08:46:34;;;;;;;2.13;1.60;;;;;;;;;;20901538;28;20268;-81
2022/04/24 08:56:37;;;;;;;1.97;1.43;;;;;;;;;;20903977;28;20264;-81
2022/04/24 09:06:41;;;;;;;3.53;1.83;;;;;;;;;;20905273;28;20276;-79
2022/04/24 09:16:47;;;;;;;1.93;1.53;;;;;;;;;;20909226;28;20217;-80
2022/04/24 09:26:57;;;;;;;2.67;1.90;;;;;;;;;;20903550;28;20265;-81
2022/04/24 09:37:03;;;;;;;2.83;1.70;;;;;;;;;;20902435;28;20713;-81
2022/04/24 09:47:05;;;;;;;2.10;1.60;;;;;;;;;;20835803;28;20834;-82
2022/04/24 09:57:08;;;;;;;2.60;1.70;;;;;;;;;;20834567;28;20211;-82
2022/04/24 10:07:10;;;;;;;3.83;1.50;;;;;;;;;;20841394;28;20732;-81
2022/04/24 10:17:26;;;;;;;2.70;1.67;;;;;;;;;;20896666;28;20226;-82
2022/04/24 10:27:56;;;;;;;2.23;1.67;;;;;;;;;;20880361;28;20229;-81
2022/04/24 10:38:07;;;;;;;2.33;1.70;;;;;;;;;;20882484;28;20210;-82
2022/04/24 10:48:14;;;;;;;2.57;1.37;;;13.40;99.90;;;;;;20911741;28;20244;-81
2022/04/24 10:58:27;;;;;;;2.50;1.90;;;;;;;;;;20889951;28;20222;-83
2022/04/24 11:08:28;;;;;;;2.63;1.83;;;;;;;;;;20858818;28;20291;-83
2022/04/24 11:18:31;;;;;;;3.50;2.10;;;;;;;;;;20874823;28;20287;-82
2022/04/24 11:28:34;;;;;;;2.17;1.50;;;;;;;;;;20872785;28;20295;-83
2022/04/24 11:38:36;;;;;;;3.10;2.00;;;;;;;;;;20888925;28;20571;-82
2022/04/24 11:59:14;;;;;;;3.00;1.93;;;;;;;;;;20862245;28;20276;-81
2022/04/24 12:09:22;;;;;;;3.17;2.10;;;;;;;;;;20885649;28;20222;-82
2022/04/24 12:19:24;;;;;;;3.40;2.10;;;;;;;;;;20905130;28;20649;-83
2022/04/24 12:29:25;;;;;;;4.03;2.13;;;;;;;;;;20840740;28;20704;-83
2022/04/24 12:39:28;;;;;;;2.70;2.00;;;;;;;;;;20877198;28;20639;-83
2022/04/24 12:49:32;;;;;;;3.53;2.20;;;;;;;;;;20885536;28;20710;-82
2022/04/24 12:59:34;;;;;;;2.80;2.03;;;;;;;;;;20905007;28;20283;-82
2022/04/24 13:09:37;;;;;;;5.17;2.40;;;;;;;;;;20899742;28;20284;-83
2022/04/24 13:19:41;;;;;;;2.90;1.80;;;;;;;;;;20897289;28;20253;-83
2022/04/24 13:29:43;;;;;;;3.03;2.03;;;;;;;;;;20892922;28;20229;-82
2022/04/24 13:39:45;;;;;;;4.13;2.07;;;;;;;;;;20869587;28;20275;-82
2022/04/24 13:49:47;;;;;;;3.80;2.80;;;;;;;;;;20868800;28;20284;-84
2022/04/24 13:59:50;;;;;;;2.73;2.07;;;;;;;;;;20881808;28;20765;-82
2022/04/24 14:09:52;;;;;;;3.03;2.20;;;;;;;;;;20883547;28;20276;-81
2022/04/24 14:19:54;;;;;;;3.07;2.40;;;;;;;;;;20869895;28;20237;-82
2022/04/24 14:29:56;;;;;;;3.23;2.23;;;;;;;;;;20898214;28;20242;-83
2022/04/24 14:40:04;;;;;;;3.00;2.10;;;;;;;;;;20845599;28;20206;-83
2022/04/24 15:00:35;;;;;;;3.57;2.03;;;;;;;;;;20886690;28;20702;-85
2022/04/24 15:10:47;;;;;;;2.93;1.93;;;;;;;;;;20858283;28;20230;-83
2022/04/24 15:20:59;;;;;;;2.80;1.77;;;;;;;;;;20850790;28;20293;-82
2022/04/24 15:31:09;;;;;;;2.63;1.80;;;;;;;;;;20838546;28;20229;-83
2022/04/24 15:41:18;;;;;;;2.47;1.97;;;;;;;;;;20854100;28;20222;-83
2022/04/24 15:51:31;;;;;;;2.53;1.90;;;;;;;;;;20874395;28;20291;-82
2022/04/24 16:01:34;;;;;;;2.77;1.80;;;;;;;;;;20853402;28;20214;-78
2022/04/24 16:11:36;;;;;;;2.53;1.70;;;;;;;;;;20844870;28;20230;-79
2022/04/24 16:21:40;;;;;;;2.90;1.93;;;;;;;;;;20869627;28;20706;-79
2022/04/24 16:31:43;;;;;;;3.10;1.93;;;;;;;;;;20890397;28;20232;-80
2022/04/24 16:41:47;;;;;;;2.60;1.80;;;;;;;;;;20943013;28;20878;-79
2022/04/24 17:02:12;;;;;;;3.60;2.33;;;;;;;;;;20984672;28;20209;-82
2022/04/24 17:12:14;;;;;;;2.20;1.63;;;;;;;;;;20966555;28;20229;-80
2022/04/24 17:22:17;;;;;;;3.37;2.13;;;;;;;;;;20896065;28;20245;-79
2022/04/24 17:32:20;;;;;;;3.33;2.00;;;;;;;;;;20914182;28;20220;-81
2022/04/24 17:42:22;;;;;;;4.17;2.73;;;;;;;;;;20877687;28;20218;-81
2022/04/24 17:52:29;;;;;;;4.57;3.00;;;;;;;;;;20939860;28;20229;-81
2022/04/24 18:02:31;;;;;;;4.43;2.87;;;;;;;;;;20934214;28;20280;-80
2022/04/24 18:12:34;;;;;;;4.13;2.90;;;;;;;;;;20924597;28;20226;-80
2022/04/24 18:22:39;;;;;;;3.80;3.17;;;;;;;;;;20861342;28;20214;-80
2022/04/24 18:32:42;;;;;;;4.57;3.30;;;13.40;99.90;;;;;;20881564;28;20244;-84
2022/04/24 18:42:46;;;;;;;4.37;3.00;;;;;;;;;;20836147;28;20210;-80
2022/04/24 18:52:48;;;;;;;4.40;3.03;;;;;;;;;;20885225;28;20226;-81
2022/04/24 19:02:49;;;;;;;4.00;3.20;;;;;;;;;;20871205;28;20268;-81
2022/04/24 19:12:53;;;;;;;5.10;3.20;;;13.30;99.90;;;;;;20902943;28;20230;-81
2022/04/24 19:22:57;;;;;;;3.67;2.90;;;;;;;;;;20903444;28;20444;-81
2022/04/24 19:32:58;;;;;;;4.40;3.23;;;;;;;;;;20852196;28;20284;-81
2022/04/24 19:43:03;;;;;;;4.57;3.50;;;;;;;;;;20865623;28;20218;-80
2022/04/24 19:53:05;;;;;;;4.77;3.23;;;;;;;;;;20893009;28;20722;-81
2022/04/24 20:03:07;;;;;;;4.03;3.00;;;;;;;;;;20878458;28;20217;-83
2022/04/24 20:13:09;;;;;;;4.20;3.00;;;;;;;;;;20848006;28;20284;-81
2022/04/24 20:23:10;;;;;;;5.80;3.97;;;;;;;;;;20862290;28;20295;-81
2022/04/24 20:33:13;;;;;;;7.60;5.37;;;13.00;99.90;;;;;;20870215;28;20375;-82
2022/04/24 20:43:15;;;;;;;6.07;4.83;;;;;;;;;;20879809;28;20276;-80
2022/04/24 20:53:16;;;;;;;5.33;3.70;;;;;;;;;;20914729;28;20261;-81
2022/04/24 21:03:18;;;;;;;4.50;3.40;;;;;;;;;;20880628;28;20205;-81
2022/04/24 21:13:20;;;;;;;5.63;3.50;;;;;;;;;;20916995;28;20729;-80
2022/04/24 21:23:23;;;;;;;3.77;2.70;;;;;;;;;;20895839;28;20293;-83
2022/04/24 21:33:25;;;;;;;3.43;2.80;;;;;;;;;;20866009;28;20234;-82
2022/04/24 21:43:27;;;;;;;4.53;2.83;;;;;;;;;;20881453;28;20222;-82
2022/04/24 21:53:29;;;;;;;4.27;3.20;;;;;;;;;;20866857;28;20229;-82
2022/04/24 22:13:52;;;;;;;3.67;2.43;;;;;;;;;;20930670;28;20769;-82
2022/04/24 22:34:14;;;;;;;3.73;2.53;;;;;;;;;;20978827;28;20229;-81
2022/04/24 22:44:16;;;;;;;3.70;2.83;;;11.90;99.90;;;;;;20944587;28;20635;-81
2022/04/24 22:54:18;;;;;;;4.03;2.77;;;;;;;;;;20878004;28;20226;-81
2022/04/24 23:04:21;;;;;;;3.17;2.23;;;;;;;;;;20958894;28;20240;-81
2022/04/24 23:14:22;;;;;;;3.33;2.60;;;;;;;;;;20942680;28;20233;-81
2022/04/24 23:24:25;;;;;;;3.13;2.20;;;;;;;;;;20959196;28;20241;-81
2022/04/24 23:34:27;;;;;;;3.53;2.20;;;;;;;;;;20993318;28;20286;-82
2022/04/24 23:44:29;;;;;;;3.27;2.47;;;;;;;;;;20964862;28;20218;-81
2022/04/24 23:54:31;;;;;;;5.13;2.53;;;;;;;;;;20872057;28;20229;-80
